Time;durP1;ratioP1;P1;durP2;ratioP2;P2;SDS_P1;SDS_P2;PMS_P1;PMS_P2;Temp;Humidity;BMP_temperature;BMP_pressure;BME280_temperature;BME280_humidity;BME280_pressure;Samples;Min_cycle;Max_cycle;Signal;HPM_P1;HPM_P2
2022/06/14 00:00:55;;;;;;;3.87;2.60;;;13.90;98.60;;;14.70;100.00;98801.22;4999036;28;20491;-78
2022/06/14 00:03:32;;;;;;;12.90;2.27;;;13.80;98.60;;;14.66;100.00;98792.88;4995713;28;20443;-77
2022/06/14 00:06:04;;;;;;;2.70;1.87;;;13.80;98.60;;;14.60;100.00;98791.84;5000054;28;20486;-77
2022/06/14 00:08:34;;;;;;;4.27;2.17;;;13.70;98.80;;;14.56;100.00;98793.25;4997748;28;20513;-77
2022/06/14 00:11:11;;;;;;;3.60;2.33;;;13.70;98.70;;;14.54;100.00;98789.19;4999201;28;20487;-77
2022/06/14 00:13:42;;;;;;;10.13;2.00;;;13.70;98.90;;;14.41;100.00;98787.28;4996778;28;20497;-77
2022/06/14 00:16:12;;;;;;;2.60;1.73;;;13.70;98.70;;;14.39;100.00;98781.41;4996912;28;21579;-78
2022/06/14 00:18:43;;;;;;;2.50;1.90;;;13.50;99.20;;;14.44;100.00;98784.25;4995711;28;20475;-77
2022/06/14 00:21:13;;;;;;;3.63;1.77;;;13.40;99.20;;;14.40;100.00;98779.59;4996407;28;20547;-77
2022/06/14 00:23:44;;;;;;;4.50;2.23;;;13.50;99.10;;;14.31;100.00;98789.41;4995845;28;21466;-78
2022/06/14 00:26:14;;;;;;;4.30;1.90;;;13.40;99.10;;;14.25;100.00;98792.00;4996287;28;20474;-77
2022/06/14 00:28:46;;;;;;;6.53;2.17;;;13.40;99.10;;;14.17;100.00;98787.69;4997461;28;20490;-77
2022/06/14 00:31:19;;;;;;;2.83;2.10;;;13.40;99.20;;;14.13;100.00;98781.19;4999594;28;20503;-77
2022/06/14 00:33:51;;;;;;;2.60;1.77;;;13.30;99.30;;;14.13;100.00;98781.19;4999309;28;20851;-77
2022/06/14 00:36:25;;;;;;;2.00;1.70;;;13.30;99.20;;;14.19;100.00;98787.50;4998602;28;20959;-78
2022/06/14 00:38:55;;;;;;;4.50;2.17;;;13.30;99.60;;;14.17;100.00;98781.59;5002233;28;20478;-77
2022/06/14 00:41:36;;;;;;;5.90;2.23;;;13.30;99.40;;;14.09;100.00;98782.59;5000906;28;20447;-78
2022/06/14 00:44:11;;;;;;;3.30;1.90;;;13.20;99.50;;;14.04;100.00;98777.06;4998613;28;20913;-77
2022/06/14 00:46:48;;;;;;;3.43;2.10;;;13.10;99.60;;;14.10;100.00;98776.31;4998083;28;20506;-77
2022/06/14 00:49:27;;;;;;;3.40;1.77;;;13.10;99.60;;;14.08;100.00;98778.31;4998945;28;20460;-77
2022/06/14 00:52:04;;;;;;;4.93;2.07;;;13.20;99.60;;;14.03;100.00;98780.69;4999294;28;20483;-77
2022/06/14 00:54:41;;;;;;;5.03;1.93;;;13.20;99.20;;;14.00;100.00;98786.34;4999999;28;20549;-77
2022/06/14 00:57:20;;;;;;;4.80;2.23;;;13.10;99.50;;;13.97;100.00;98781.47;5000137;28;20503;-77
2022/06/14 00:59:53;;;;;;;3.93;1.93;;;13.00;99.80;;;13.90;100.00;98777.97;4997289;28;21050;-77
2022/06/14 01:02:28;;;;;;;4.93;1.90;;;13.10;99.40;;;13.93;100.00;98782.84;4997719;28;20887;-77
2022/06/14 01:05:05;;;;;;;4.50;2.33;;;13.00;99.60;;;13.85;100.00;98781.16;5001418;28;20463;-77
2022/06/14 01:07:41;;;;;;;3.00;1.60;;;13.00;99.80;;;13.77;100.00;98778.69;4997513;28;20972;-77
2022/06/14 01:10:18;;;;;;;2.90;1.80;;;12.90;99.80;;;13.81;100.00;98773.84;4996949;28;20549;-77
2022/06/14 01:12:54;;;;;;;4.27;1.80;;;12.90;99.90;;;13.80;100.00;98782.75;4999535;28;20470;-77
2022/06/14 01:15:28;;;;;;;3.77;1.80;;;12.80;99.80;;;13.73;100.00;98772.16;5003160;28;20497;-77
2022/06/14 01:18:05;;;;;;;3.50;1.80;;;12.70;99.90;;;13.68;100.00;98773.72;4998174;28;20467;-77
2022/06/14 01:20:38;;;;;;;6.20;1.90;;;12.70;99.90;;;13.65;100.00;98779.34;4999596;28;20509;-77
2022/06/14 01:23:13;;;;;;;5.93;1.93;;;12.70;99.90;;;13.50;100.00;98780.22;5003227;28;20506;-77
2022/06/14 01:25:48;;;;;;;3.77;1.67;;;12.60;99.90;;;13.47;100.00;98777.97;4997757;28;20463;-77
2022/06/14 01:28:23;;;;;;;4.00;2.00;;;12.60;99.90;;;13.58;100.00;98768.78;5000021;28;20470;-77
2022/06/14 01:30:54;;;;;;;5.37;1.93;;;12.60;99.90;;;13.54;100.00;98770.97;4997718;28;20924;-77
2022/06/14 01:33:31;;;;;;;4.93;1.77;;;12.60;99.90;;;13.49;100.00;98770.75;5000685;28;20560;-77
2022/06/14 01:36:09;;;;;;;8.33;1.67;;;12.60;99.90;;;13.37;100.00;98771.41;5000936;28;20494;-77
2022/06/14 01:38:45;;;;;;;7.13;2.03;;;12.60;99.90;;;13.32;100.00;98777.25;4995735;28;20464;-77
2022/06/14 01:41:30;;;;;;;4.37;1.77;;;12.50;99.90;;;13.25;100.00;98773.72;4997720;28;20458;-77
2022/06/14 01:44:30;;;;;;;3.67;1.83;;;12.40;99.90;;;13.23;100.00;98772.25;4998900;28;20507;-77
2022/06/14 01:47:22;;;;;;;2.80;1.70;;;12.50;99.90;;;13.34;100.00;98772.59;4996346;28;20510;-78
2022/06/14 01:53:19;;;;;;;3.50;1.60;;;12.30;99.90;;;13.23;100.00;98770.44;4998526;28;20464;-77
2022/06/14 01:55:59;;;;;;;5.63;2.00;;;12.10;99.90;;;13.12;100.00;98765.69;4996814;28;21508;-78
2022/06/14 01:58:40;;;;;;;4.43;1.90;;;12.20;99.90;;;13.04;100.00;98757.91;4998838;28;20465;-77
2022/06/14 02:01:20;;;;;;;5.23;1.97;;;12.10;99.90;;;12.97;100.00;98768.34;4997243;28;20818;-77
2022/06/14 02:07:02;;;;;;;4.40;2.13;;;12.10;99.90;;;12.98;100.00;98759.44;4997815;28;20462;-77
2022/06/14 02:09:52;;;;;;;4.50;1.60;;;12.10;99.90;;;13.01;100.00;98764.34;4998311;28;20573;-77
2022/06/14 02:12:35;;;;;;;2.50;1.60;;;12.10;99.90;;;12.93;100.00;98761.81;5001613;28;21169;-77
2022/06/14 02:15:19;;;;;;;3.17;1.87;;;12.00;99.90;;;12.78;100.00;98758.38;5000038;28;20448;-77
2022/06/14 02:18:05;;;;;;;4.00;1.60;;;12.00;99.90;;;12.73;100.00;98766.00;4997330;28;20467;-77
2022/06/14 02:20:51;;;;;;;4.40;1.87;;;11.90;99.90;;;12.77;100.00;98762.03;5000399;28;20471;-79
2022/06/14 02:23:22;;;;;;;3.83;1.70;;;11.90;99.90;;;12.76;100.00;98767.44;4996966;28;20474;-77
2022/06/14 02:26:01;;;;;;;3.73;1.90;;;11.90;99.90;;;12.67;100.00;98765.94;4996648;28;20969;-77
2022/06/14 02:28:39;;;;;;;4.00;2.10;;;11.80;99.90;;;12.65;100.00;98763.47;5000105;28;21000;-78
2022/06/14 02:31:15;;;;;;;2.33;1.80;;;11.80;99.90;;;12.74;100.00;98765.00;4997079;28;20478;-77
2022/06/14 02:33:55;;;;;;;1.97;1.57;;;11.70;99.90;;;12.67;100.00;98763.31;4997464;28;20464;-77
2022/06/14 02:36:30;;;;;;;6.83;2.10;;;11.70;99.90;;;12.61;100.00;98767.47;5000506;28;20459;-77
2022/06/14 02:39:08;;;;;;;2.63;1.90;;;11.70;99.90;;;12.56;100.00;98765.38;4996799;28;20498;-77
2022/06/14 02:41:45;;;;;;;3.10;1.60;;;11.70;99.90;;;12.48;100.00;98757.63;4995958;28;20499;-77
2022/06/14 02:44:25;;;;;;;3.53;1.63;;;11.70;99.90;;;12.50;100.00;98755.59;4997051;28;20985;-77
2022/06/14 02:47:04;;;;;;;6.67;1.93;;;11.70;99.90;;;12.54;100.00;98761.31;4995242;28;20459;-80
2022/06/14 02:49:43;;;;;;;2.27;1.60;;;11.60;99.90;;;12.47;100.00;98750.72;4999567;28;21005;-79
2022/06/14 02:52:22;;;;;;;3.20;1.57;;;11.60;99.90;;;12.43;100.00;98746.84;4996870;28;20590;-78
2022/06/14 02:55:02;;;;;;;3.30;2.23;;;11.60;99.90;;;12.51;100.00;98759.88;5000145;28;20999;-77
2022/06/14 02:57:41;;;;;;;4.77;1.90;;;11.60;99.90;;;12.46;100.00;98749.09;4997973;28;20470;-77
2022/06/14 03:00:19;;;;;;;4.80;1.83;;;11.60;99.90;;;12.43;100.00;98741.59;4997917;28;20480;-77
2022/06/14 03:02:59;;;;;;;3.20;1.53;;;11.60;99.90;;;12.36;100.00;98748.56;4997866;28;20443;-77
2022/06/14 03:05:36;;;;;;;2.30;1.70;;;11.50;99.90;;;12.38;100.00;98746.59;4998641;28;20446;-77
2022/06/14 03:08:18;;;;;;;1.73;1.30;;;11.50;99.90;;;12.39;100.00;98742.94;4998574;28;20463;-79
2022/06/14 03:11:07;;;;;;;4.20;1.47;;;11.50;99.90;;;12.29;100.00;98752.91;4997606;28;20579;-77
2022/06/14 03:13:48;;;;;;;2.70;1.70;;;11.50;99.90;;;12.23;100.00;98751.00;4993838;28;20463;-77
2022/06/14 03:16:31;;;;;;;1.87;1.40;;;11.50;99.90;;;12.28;100.00;98751.28;4998221;28;20458;-77
2022/06/14 03:19:11;;;;;;;3.10;1.50;;;11.40;99.90;;;12.28;100.00;98745.22;4993682;28;20464;-77
2022/06/14 03:21:52;;;;;;;3.70;1.70;;;11.40;99.90;;;12.29;100.00;98752.91;4997546;28;20467;-77
2022/06/14 03:24:36;;;;;;;2.27;1.50;;;11.40;99.90;;;12.20;100.00;98748.75;5001445;28;20466;-77
2022/06/14 03:27:18;;;;;;;6.47;1.53;;;11.40;99.90;;;12.18;100.00;98744.69;5002017;28;20467;-77
2022/06/14 03:29:59;;;;;;;4.10;1.73;;;11.40;99.90;;;12.19;100.00;98744.47;4995716;28;20458;-77
2022/06/14 03:32:38;;;;;;;2.10;1.30;;;11.30;99.90;;;12.19;100.00;98747.09;4998445;28;20479;-77
2022/06/14 03:35:17;;;;;;;4.43;1.80;;;11.30;99.90;;;12.22;100.00;98749.34;4998206;28;20467;-77
2022/06/14 03:37:47;;;;;;;3.50;1.87;;;11.30;99.90;;;12.16;100.00;98744.84;4994998;28;20466;-77
2022/06/14 03:40:21;;;;;;;2.43;1.30;;;11.30;99.90;;;12.13;100.00;98747.81;4994009;28;20464;-77
2022/06/14 03:42:51;;;;;;;2.30;1.57;;;11.30;99.90;;;12.11;100.00;98744.59;4997064;28;20478;-86
2022/06/14 03:45:29;;;;;;;4.60;1.80;;;11.30;99.90;;;12.12;100.00;98743.56;4997102;28;20490;-77
2022/06/14 03:48:00;;;;;;;2.67;1.50;;;11.30;99.90;;;12.16;100.00;98749.28;5000270;28;20478;-76
2022/06/14 03:50:39;;;;;;;2.80;1.60;;;11.30;99.90;;;12.09;100.00;98751.78;5000693;28;20436;-76
2022/06/14 03:53:28;;;;;;;6.27;2.13;;;11.30;99.90;;;12.05;100.00;98753.97;4998475;28;20529;-76
2022/06/14 03:56:18;;;;;;;6.70;1.70;;;11.20;99.90;;;12.10;100.00;98753.44;5000281;28;20442;-76
2022/06/14 04:00:03;;;;;;;3.00;1.43;;;11.20;99.90;;;12.18;100.00;98750.75;4999443;28;20502;-77
2022/06/14 04:02:56;;;;;;;1.87;1.50;;;11.10;99.90;;;12.11;100.00;98753.22;4988001;28;20458;-76
2022/06/14 04:05:43;;;;;;;2.87;1.80;;;11.20;99.90;;;12.10;100.00;98750.81;5001987;28;20828;-77
2022/06/14 04:08:32;;;;;;;5.10;1.43;;;11.20;99.90;;;12.10;100.00;98753.44;5004435;28;20530;-82
2022/06/14 04:11:17;;;;;;;3.23;2.40;;;11.10;99.90;;;12.02;100.00;98751.69;5002940;28;20478;-77
2022/06/14 04:13:58;;;;;;;2.23;1.60;;;11.20;99.90;;;12.05;100.00;98750.53;5006128;28;20468;-86
2022/06/14 04:16:41;;;;;;;3.07;1.97;;;11.10;99.90;;;12.06;100.00;98752.16;5001062;28;20521;-77
2022/06/14 04:19:26;;;;;;;2.90;1.70;;;11.10;99.90;;;12.07;100.00;98756.41;5001546;28;20898;-77
2022/06/14 04:22:05;;;;;;;2.63;1.57;;;11.10;99.90;;;12.00;100.00;98764.19;5002709;28;20946;-77
2022/06/14 04:24:42;;;;;;;1.83;1.40;;;11.10;99.90;;;11.95;100.00;98755.22;5003779;28;20819;-77
2022/06/14 04:27:19;;;;;;;4.00;1.63;;;11.10;99.90;;;11.94;100.00;98757.00;5004723;28;20979;-77
2022/06/14 04:29:59;;;;;;;3.53;2.08;;;11.10;99.90;;;12.03;100.00;98753.34;5003485;28;20439;-77
2022/06/14 04:32:36;;;;;;;5.57;2.00;;;11.10;99.90;;;12.04;100.00;98754.16;5005110;28;20231;-77
2022/06/14 04:35:15;;;;;;;2.93;1.17;;;11.10;99.90;;;12.09;100.00;98751.78;5004761;28;20494;-77
2022/06/14 04:37:53;;;;;;;2.23;1.60;;;11.10;99.90;;;12.15;100.00;98763.38;5003150;28;20466;-77
2022/06/14 04:40:32;;;;;;;4.20;2.30;;;11.10;99.90;;;12.19;100.00;98760.22;5006075;28;20444;-77
2022/06/14 04:43:08;;;;;;;6.60;2.50;;;11.10;99.90;;;12.25;100.00;98756.88;5006094;28;20447;-77
2022/06/14 04:45:45;;;;;;;6.90;1.70;;;11.10;99.90;;;12.30;100.00;98753.72;5005325;28;20467;-77
2022/06/14 04:48:21;;;;;;;12.77;1.70;;;11.20;99.90;;;12.27;100.00;98752.28;5004935;28;20509;-77
2022/06/14 04:50:59;;;;;;;3.67;1.47;;;11.30;99.90;;;12.33;100.00;98759.41;5004797;28;20522;-78
2022/06/14 04:53:37;;;;;;;10.70;2.10;;;11.30;99.90;;;12.36;100.00;98748.56;5003869;28;20494;-77
2022/06/14 04:56:16;;;;;;;2.37;1.50;;;11.40;99.90;;;12.38;100.00;98751.81;5005476;28;20479;-77
2022/06/14 04:58:53;;;;;;;3.97;1.87;;;11.40;99.90;;;12.45;100.00;98749.28;5004505;28;20876;-77
2022/06/14 05:01:34;;;;;;;7.10;1.90;;;11.40;99.90;;;12.44;100.00;98748.47;5002484;28;20495;-77
2022/06/14 05:04:12;;;;;;;4.90;1.53;;;11.50;99.90;;;12.48;100.00;98747.13;5005204;28;20452;-77
2022/06/14 05:06:57;;;;;;;8.43;2.20;;;11.60;99.90;;;12.49;100.00;98748.75;5001190;28;20463;-77
2022/06/14 05:09:32;;;;;;;3.33;1.77;;;11.60;99.90;;;12.48;100.00;98752.38;5004316;28;20471;-77
2022/06/14 05:12:14;;;;;;;5.10;1.40;;;11.60;99.90;;;12.53;100.00;98743.94;5003720;28;20491;-77
2022/06/14 05:14:50;;;;;;;5.80;1.60;;;11.60;99.90;;;12.58;100.00;98745.03;5001482;28;20471;-77
2022/06/14 05:17:28;;;;;;;3.00;1.87;;;11.60;99.90;;;12.65;100.00;98741.66;5002994;28;20561;-77
2022/06/14 05:20:07;;;;;;;5.53;1.87;;;11.70;99.90;;;12.66;100.00;98732.81;5003707;28;20473;-77
2022/06/14 05:22:47;;;;;;;4.23;1.60;;;11.70;99.90;;;12.72;100.00;98730.25;5003348;28;20462;-77
2022/06/14 05:25:19;;;;;;;2.63;1.60;;;11.80;99.90;;;12.78;100.00;98726.06;5002672;28;21248;-78
2022/06/14 05:28:01;;;;;;;2.13;1.50;;;11.80;99.90;;;12.85;100.00;98726.97;5001721;28;20459;-77
2022/06/14 05:30:46;;;;;;;11.90;1.50;;;11.80;99.90;;;12.90;100.00;98724.63;5004199;28;20470;-77
2022/06/14 05:33:37;;;;;;;6.30;1.47;;;11.90;99.90;;;12.96;100.00;98723.88;5003110;28;20560;-77
2022/06/14 05:36:16;;;;;;;3.13;1.23;;;12.00;99.90;;;13.00;100.00;98725.94;5002553;28;20966;-77
2022/06/14 05:38:54;;;;;;;1.37;1.27;;;12.00;99.90;;;13.06;100.00;98719.13;5004455;28;20443;-77
2022/06/14 05:41:34;;;;;;;3.73;1.73;;;12.00;99.90;;;13.10;100.00;98720.41;5001802;28;20461;-77
2022/06/14 05:44:10;;;;;;;2.20;1.20;;;12.10;99.90;;;13.16;100.00;98718.84;5002331;28;20501;-77
2022/06/14 05:46:46;;;;;;;2.83;1.43;;;12.10;99.90;;;13.22;100.00;98718.94;5001385;28;20950;-77
2022/06/14 05:49:23;;;;;;;2.00;1.50;;;12.20;99.90;;;13.28;100.00;98714.75;5001979;28;20454;-77
2022/06/14 05:52:01;;;;;;;5.43;1.77;;;12.30;99.90;;;13.33;100.00;98718.41;5002188;28;20466;-77
2022/06/14 05:54:37;;;;;;;3.50;1.40;;;12.40;99.90;;;13.37;100.00;98717.06;5004144;28;20440;-77
2022/06/14 05:57:24;;;;;;;2.40;1.47;;;12.40;99.90;;;13.44;100.00;98717.94;5002191;28;20470;-77
2022/06/14 06:00:02;;;;;;;2.33;1.57;;;12.50;99.90;;;13.50;100.00;98717.16;5000091;28;20532;-77
2022/06/14 06:02:41;;;;;;;3.47;1.40;;;12.50;99.90;;;13.57;100.00;98712.78;5004045;28;20467;-77
2022/06/14 06:05:20;;;;;;;12.10;1.70;;;12.60;99.90;;;13.64;100.00;98718.09;4998902;28;20481;-77
2022/06/14 06:07:57;;;;;;;2.37;1.70;;;12.70;99.90;;;13.71;100.00;98723.44;5000557;28;20488;-77
2022/06/14 06:10:33;;;;;;;3.60;1.57;;;12.70;99.90;;;13.73;100.00;98719.59;5001986;28;20482;-77
2022/06/14 06:13:10;;;;;;;3.17;1.60;;;12.80;99.90;;;13.79;100.00;98718.00;5003487;28;20482;-77
2022/06/14 06:15:47;;;;;;;2.67;1.53;;;12.80;99.90;;;13.84;100.00;98713.00;4999602;28;20462;-77
2022/06/14 06:18:25;;;;;;;3.13;1.50;;;12.90;99.90;;;13.89;100.00;98707.97;5001118;28;20550;-77
2022/06/14 06:21:03;;;;;;;5.53;1.40;;;13.00;99.90;;;13.91;100.00;98706.81;5002115;28;20474;-77
2022/06/14 06:23:46;;;;;;;6.50;1.50;;;13.00;99.90;;;13.99;100.00;98708.44;5002317;28;20561;-77
2022/06/14 06:26:21;;;;;;;2.60;1.30;;;13.10;99.90;;;14.05;100.00;98708.50;5000121;28;20518;-77
2022/06/14 06:28:59;;;;;;;2.17;1.40;;;13.10;99.90;;;14.12;100.00;98708.56;5002435;28;20478;-77
2022/06/14 06:31:34;;;;;;;4.87;1.50;;;13.20;99.90;;;14.20;100.00;98705.75;5001614;28;20459;-78
2022/06/14 06:34:11;;;;;;;8.57;1.70;;;13.20;99.90;;;14.26;100.00;98702.38;5000928;28;21001;-77
2022/06/14 06:37:03;;;;;;;3.03;1.80;;;13.30;99.90;;;14.33;100.00;98702.41;5003153;28;20471;-78
2022/06/14 06:39:48;;;;;;;6.83;1.63;;;13.40;99.90;;;14.39;100.00;98705.09;5003115;28;20466;-77
2022/06/14 06:42:30;;;;;;;2.70;1.33;;;13.50;99.90;;;14.47;100.00;98699.66;5001270;28;20452;-78
2022/06/14 06:45:13;;;;;;;3.93;1.50;;;13.50;99.90;;;14.54;100.00;98695.22;5001668;28;20474;-78
2022/06/14 06:47:52;;;;;;;5.50;1.60;;;13.70;99.90;;;14.60;100.00;98697.09;5002606;28;20464;-78
2022/06/14 06:50:26;;;;;;;4.97;1.70;;;13.70;99.90;;;14.67;100.00;98701.56;5002758;28;20444;-77
2022/06/14 06:53:24;;;;;;;8.97;2.00;;;13.80;99.90;;;14.75;100.00;98701.41;5002495;28;20795;-77
2022/06/14 06:56:02;;;;;;;4.77;1.73;;;13.90;99.80;;;14.82;100.00;98702.25;5000589;28;20471;-78
2022/06/14 06:58:38;;;;;;;3.17;1.83;;;13.90;99.40;;;14.89;100.00;98703.06;5000838;28;20514;-77
2022/06/14 07:01:22;;;;;;;4.87;1.57;;;14.00;99.40;;;14.92;100.00;98706.13;5002863;28;20454;-77
2022/06/14 07:04:03;;;;;;;1.80;1.10;;;14.10;99.70;;;15.01;100.00;98701.47;5000035;28;20455;-78
2022/06/14 07:06:47;;;;;;;4.57;1.37;;;14.20;98.50;;;15.09;98.70;98698.66;5000873;28;20474;-77
2022/06/14 07:09:28;;;;;;;6.50;1.90;;;14.30;98.50;;;15.16;95.33;98699.50;5003485;28;20559;-77
2022/06/14 07:12:03;;;;;;;6.20;1.50;;;14.30;97.00;;;15.23;94.76;98689.78;4999723;28;20479;-78
2022/06/14 07:14:48;;;;;;;3.97;1.53;;;14.40;98.00;;;15.30;93.44;98690.59;5001464;28;20482;-77
2022/06/14 07:17:30;;;;;;;4.20;1.43;;;14.60;97.70;;;15.38;92.87;98695.66;4999640;28;20974;-78
2022/06/14 07:20:08;;;;;;;3.17;1.30;;;14.60;97.50;;;15.45;92.16;98680.66;5000867;28;20491;-78
2022/06/14 07:22:47;;;;;;;3.00;1.37;;;14.70;97.60;;;15.51;88.29;98687.81;4999037;28;20966;-77
2022/06/14 07:25:25;;;;;;;2.40;1.40;;;14.80;96.60;;;15.59;86.39;98690.22;5000575;28;20461;-77
2022/06/14 07:28:07;;;;;;;6.30;1.50;;;14.90;96.30;;;15.68;85.07;98690.84;5002471;28;20866;-77
2022/06/14 07:30:45;;;;;;;2.97;1.53;;;15.00;95.70;;;15.77;85.71;98680.88;4999873;28;20466;-77
2022/06/14 07:33:19;;;;;;;5.37;1.37;;;15.00;96.20;;;15.83;86.39;98686.16;5002021;28;20454;-78
2022/06/14 07:35:54;;;;;;;4.53;2.00;;;15.10;96.80;;;15.90;86.17;98686.13;5001803;28;20454;-77
2022/06/14 07:38:36;;;;;;;4.47;1.60;;;15.20;96.40;;;15.99;83.72;98684.94;5004688;28;20995;-77
2022/06/14 07:41:17;;;;;;;4.60;1.77;;;15.30;95.30;;;16.08;82.66;98683.69;5005841;28;20506;-77
2022/06/14 07:43:58;;;;;;;4.53;1.70;;;15.30;94.90;;;16.15;83.02;98683.66;5005039;28;20481;-77
2022/06/14 07:46:39;;;;;;;3.13;1.10;;;15.40;95.60;;;16.19;83.78;98680.41;5006503;28;20965;-78
2022/06/14 07:49:22;;;;;;;6.33;1.40;;;15.50;95.90;;;16.28;83.28;98676.53;5003741;28;20467;-77
2022/06/14 07:52:00;;;;;;;2.83;1.40;;;15.60;95.70;;;16.35;82.64;98677.31;5004010;28;20579;-77
2022/06/14 07:54:38;;;;;;;6.90;1.57;;;15.70;95.60;;;16.42;81.34;98677.28;5004016;28;20540;-77
2022/06/14 07:57:14;;;;;;;1.73;1.27;;;15.70;95.10;;;16.47;80.72;98672.19;5004605;28;20451;-77
2022/06/14 07:59:54;;;;;;;3.10;1.40;;;15.80;95.20;;;16.53;80.99;98676.63;5002525;28;20871;-77
2022/06/14 08:02:35;;;;;;;2.33;1.20;;;15.80;95.20;;;16.60;79.68;98672.16;5003776;28;20450;-77
2022/06/14 08:05:15;;;;;;;6.40;1.57;;;15.90;95.00;;;16.66;79.53;98673.19;5001865;28;20465;-77
2022/06/14 08:07:47;;;;;;;2.10;1.20;;;15.90;95.00;;;16.72;78.67;98670.50;5004348;28;20692;-77
2022/06/14 08:10:24;;;;;;;5.63;1.70;;;16.00;94.80;;;16.76;78.27;98666.44;5002413;28;20490;-77
2022/06/14 08:13:00;;;;;;;4.63;1.70;;;16.10;95.10;;;16.81;79.16;98668.41;5004590;28;20465;-77
2022/06/14 08:15:36;;;;;;;2.00;1.30;;;16.10;95.00;;;16.85;79.64;98659.88;5003641;28;20491;-78
2022/06/14 08:18:16;;;;;;;9.40;1.67;;;16.20;95.00;;;16.94;78.98;98658.59;5005146;28;20466;-78
2022/06/14 08:20:52;;;;;;;3.27;1.50;;;16.30;94.60;;;17.01;78.53;98653.25;5004319;28;20489;-78
2022/06/14 08:23:31;;;;;;;2.10;1.57;;;16.30;94.70;;;17.06;78.56;98658.72;5002436;28;20505;-77
2022/06/14 08:26:08;;;;;;;1.93;1.40;;;16.40;94.90;;;17.11;77.79;98651.75;5005868;28;20443;-77
2022/06/14 08:28:47;;;;;;;7.70;1.60;;;16.40;94.60;;;17.21;78.18;98646.03;5003102;28;20474;-78
2022/06/14 08:31:25;;;;;;;2.50;1.47;;;16.60;94.80;;;17.33;77.43;98657.50;5002570;28;20911;-77
2022/06/14 08:34:02;;;;;;;3.30;2.30;;;16.80;94.50;;;17.38;76.38;98655.06;5004287;28;21049;-77
2022/06/14 08:36:45;;;;;;;3.20;1.20;;;16.80;94.40;;;17.45;75.80;98649.69;5004848;28;20465;-77
2022/06/14 08:39:24;;;;;;;3.27;1.50;;;16.80;94.20;;;17.50;75.68;98653.31;5005042;28;20878;-78
2022/06/14 08:42:09;;;;;;;2.37;1.60;;;16.90;94.30;;;17.56;74.08;98649.81;5003913;28;20828;-77
2022/06/14 08:44:52;;;;;;;2.17;1.20;;;17.00;93.90;;;17.63;75.26;98656.91;5002946;28;20525;-78
2022/06/14 08:48:04;;;;;;;4.63;1.83;;;17.00;94.20;;;17.66;71.75;98641.41;5002773;28;20463;-77
2022/06/14 08:51:12;;;;;;;6.17;1.70;;;17.10;93.30;;;17.72;71.31;98637.91;5001243;28;21024;-77
2022/06/14 08:54:30;;;;;;;3.53;1.50;;;17.20;93.30;;;17.81;72.55;98643.69;4996120;28;20896;-78
2022/06/14 08:57:32;;;;;;;6.70;1.77;;;17.20;93.60;;;17.84;70.69;98640.66;5004708;28;20558;-77
2022/06/14 09:00:44;;;;;;;4.33;1.87;;;17.30;93.10;;;17.88;71.00;98636.50;5001744;28;20899;-77
2022/06/14 09:04:10;;;;;;;2.17;1.47;;;17.30;93.20;;;17.94;71.77;98638.31;5003801;28;20455;-77
2022/06/14 09:07:02;;;;;;;10.80;1.80;;;17.30;93.50;;;17.96;71.81;98637.03;5001948;28;20498;-77
2022/06/14 09:10:18;;;;;;;3.10;1.53;;;17.30;93.50;;;18.02;70.54;98630.88;5002649;28;20552;-77
2022/06/14 09:13:26;;;;;;;1.77;1.37;;;17.40;93.10;;;18.08;70.07;98634.50;5005028;28;20495;-78
2022/06/14 09:16:32;;;;;;;3.23;1.50;;;17.40;93.10;;;18.11;70.74;98623.44;5002418;28;20502;-77
2022/06/14 09:19:28;;;;;;;11.03;1.83;;;17.40;93.40;;;18.15;67.50;98624.63;5002689;28;20462;-78
2022/06/14 09:22:18;;;;;;;2.07;1.30;;;17.60;92.40;;;18.25;68.12;98619.63;5002482;28;20462;-78
2022/06/14 09:25:08;;;;;;;5.37;1.60;;;17.60;92.80;;;18.29;68.27;98623.41;5002293;28;20471;-77
2022/06/14 09:28:25;;;;;;;3.90;1.60;;;17.70;92.90;;;18.38;69.22;98622.09;5001809;28;20454;-77
2022/06/14 09:31:30;;;;;;;3.00;1.60;;;17.70;93.10;;;18.45;68.64;98620.19;5000887;28;20550;-77
2022/06/14 09:34:31;;;;;;;4.90;1.57;;;17.80;92.60;;;18.51;64.90;98619.31;5002135;28;20546;-78
2022/06/14 09:37:43;;;;;;;5.63;1.63;;;17.90;91.90;;;18.52;64.25;98615.66;5001179;28;20464;-78
2022/06/14 09:40:41;;;;;;;2.17;1.40;;;18.00;91.60;;;18.55;64.30;98617.84;5004542;28;20474;-77
2022/06/14 09:44:02;;;;;;;4.30;1.53;;;18.00;91.90;;;18.58;61.49;98608.63;5002310;28;20469;-78
2022/06/14 09:47:08;;;;;;;9.10;2.00;;;18.10;90.90;;;18.70;61.51;98603.38;5001166;28;20959;-78
2022/06/14 09:50:16;;;;;;;2.53;1.70;;;18.20;91.00;;;18.76;62.15;98594.53;5002810;28;20461;-77
2022/06/14 09:53:49;;;;;;;1.63;1.17;;;18.10;91.10;;;18.84;62.92;98591.56;5004090;28;20462;-78
2022/06/14 09:56:56;;;;;;;2.47;1.37;;;18.10;91.80;;;18.89;58.55;98594.34;5003551;28;20504;-77
2022/06/14 10:00:24;;;;;;;3.10;1.60;;;18.20;90.40;;;18.94;59.75;98603.25;5001586;28;20479;-77
2022/06/14 10:03:29;;;;;;;2.60;1.30;;;18.30;90.60;;;18.98;60.97;98593.00;5002748;28;20455;-77
2022/06/14 10:06:39;;;;;;;3.87;1.83;;;18.30;91.00;;;18.99;60.11;98592.75;5002871;28;20589;-77
2022/06/14 10:09:33;;;;;;;7.10;1.97;;;18.30;90.70;;;19.06;59.70;98592.66;5000341;28;20534;-78
2022/06/14 10:12:31;;;;;;;5.17;1.67;;;18.40;90.60;;;19.12;60.20;98589.09;5002342;28;20463;-78
2022/06/14 10:15:13;;;;;;;5.40;1.97;;;18.40;90.90;;;19.17;60.07;98581.25;5002628;28;21036;-78
2022/06/14 10:18:15;;;;;;;8.10;1.50;;;18.50;90.90;;;19.22;59.96;98584.03;5001693;28;20541;-78
2022/06/14 10:21:01;;;;;;;2.90;1.43;;;18.60;90.70;;;19.27;58.85;98570.88;5001597;28;20948;-78
2022/06/14 10:23:50;;;;;;;1.70;1.10;;;18.60;90.40;;;19.33;57.20;98574.47;5000917;28;20969;-77
2022/06/14 10:30:03;;;;;;;3.77;1.70;;;18.80;88.60;;;19.49;53.80;98574.63;5001736;28;20586;-77
2022/06/14 10:33:39;;;;;;;1.80;1.50;;;18.80;86.30;;;19.59;53.63;98569.53;5000775;28;20540;-77
2022/06/14 10:36:57;;;;;;;4.07;1.63;;;19.00;87.10;;;19.73;53.11;98564.00;5001882;28;20836;-77
2022/06/14 10:40:09;;;;;;;5.20;1.70;;;19.10;86.00;;;19.78;52.24;98564.94;5001940;28;20452;-77
2022/06/14 10:42:47;;;;;;;6.77;1.53;;;19.20;85.40;;;19.84;52.32;98565.81;4994353;28;20475;-77
2022/06/14 10:45:30;;;;;;;4.03;1.50;;;19.20;85.70;;;19.88;50.10;98561.66;5000013;28;20455;-77
2022/06/14 10:48:31;;;;;;;1.90;1.17;;;19.40;83.40;;;19.91;50.05;98551.41;5000263;28;21015;-77
2022/06/14 10:51:24;;;;;;;2.10;1.30;;;19.30;83.50;;;19.95;50.05;98552.53;5001195;28;20462;-77
2022/06/14 10:54:01;;;;;;;1.60;1.27;;;19.30;83.10;;;19.99;48.45;98547.56;5002711;28;20487;-77
2022/06/14 10:57:07;;;;;;;2.03;1.43;;;19.40;82.10;;;20.05;49.49;98550.09;5000743;28;20517;-77
2022/06/14 11:00:14;;;;;;;9.70;1.63;;;19.50;83.30;;;20.13;49.56;98542.78;5002621;28;20443;-78
2022/06/14 11:03:12;;;;;;;3.27;1.27;;;19.50;83.20;;;20.24;48.33;98550.72;5001854;28;20455;-78
2022/06/14 11:06:06;;;;;;;2.23;1.20;;;19.70;82.00;;;20.33;48.16;98545.88;5001270;28;20474;-77
2022/06/14 11:09:18;;;;;;;6.00;1.37;;;19.70;81.40;;;20.38;47.68;98541.44;4998525;28;20518;-79
2022/06/14 11:12:09;;;;;;;2.87;2.00;;;19.80;81.70;;;20.43;46.99;98530.94;4999326;28;20806;-77
2022/06/14 11:14:51;;;;;;;2.60;1.60;;;19.80;80.60;;;20.46;46.68;98527.78;4999747;28;20459;-77
2022/06/14 11:18:05;;;;;;;4.30;1.80;;;19.90;80.50;;;20.50;47.18;98523.63;5001834;28;20434;-77
2022/06/14 11:20:54;;;;;;;4.33;1.80;;;19.90;81.10;;;20.59;46.30;98524.00;5000734;28;20462;-77
2022/06/14 11:23:32;;;;;;;4.97;1.40;;;20.00;80.50;;;20.67;44.50;98526.28;5001972;28;20447;-77
2022/06/14 11:26:13;;;;;;;2.30;1.20;;;20.20;77.80;;;20.73;44.71;98514.69;5001086;28;20467;-77
2022/06/14 11:28:52;;;;;;;2.40;1.57;;;20.20;78.50;;;20.83;45.42;98506.06;4999346;28;20475;-77
2022/06/14 11:31:33;;;;;;;12.93;1.77;;;20.20;79.20;;;20.83;44.11;98519.38;5003708;28;20554;-77
2022/06/14 11:34:48;;;;;;;1.37;1.17;;;20.20;77.30;;;20.86;44.44;98506.41;5002846;28;20489;-78